Time;durP1;ratioP1;P1;durP2;ratioP2;P2;SDS_P1;SDS_P2;PMS_P1;PMS_P2;Temp;Humidity;BMP_temperature;BMP_pressure;BME280_temperature;BME280_humidity;BME280_pressure;Samples;Min_cycle;Max_cycle;Signal;HPM_P1;HPM_P2
2023/05/08 00:00:19;;;;;;;1.17;1.00;;;16.70;71.10;;;;;;5035590;28;20034;-62
2023/05/08 00:02:45;;;;;;;1.05;0.95;;;16.70;71.20;;;;;;5036340;28;20079;-62
2023/05/08 00:05:11;;;;;;;1.58;1.13;;;16.70;71.20;;;;;;5035083;28;20029;-62
2023/05/08 00:07:36;;;;;;;2.13;1.17;;;16.70;71.00;;;;;;5036568;28;20021;-62
2023/05/08 00:10:04;;;;;;;2.30;1.38;;;16.70;71.00;;;;;;5034837;28;20036;-61
2023/05/08 00:12:29;;;;;;;1.65;1.42;;;16.70;71.10;;;;;;5037466;28;20053;-62
2023/05/08 00:14:55;;;;;;;2.70;1.58;;;16.70;71.20;;;;;;5035510;28;20032;-63
2023/05/08 00:17:21;;;;;;;3.05;1.83;;;16.70;71.10;;;;;;5036219;28;20036;-60
2023/05/08 00:19:47;;;;;;;3.38;1.70;;;16.70;71.40;;;;;;5032843;28;20410;-61
2023/05/08 00:22:13;;;;;;;2.70;1.95;;;16.60;71.40;;;;;;5037558;28;20398;-62
2023/05/08 00:24:38;;;;;;;3.33;2.35;;;16.60;71.60;;;;;;5035473;28;20040;-60
2023/05/08 00:27:04;;;;;;;3.78;2.45;;;16.60;71.70;;;;;;5035595;28;20141;-62
2023/05/08 00:29:30;;;;;;;5.10;2.72;;;16.60;71.80;;;;;;5037366;28;20021;-61
2023/05/08 00:31:56;;;;;;;4.47;2.80;;;16.60;71.90;;;;;;5036468;28;20038;-63
2023/05/08 00:34:21;;;;;;;3.22;2.47;;;16.60;72.00;;;;;;5036319;28;20132;-65
2023/05/08 00:36:47;;;;;;;4.25;2.60;;;16.60;72.10;;;;;;5036504;28;20123;-61
2023/05/08 00:39:13;;;;;;;5.53;2.45;;;16.60;72.20;;;;;;5014536;28;20485;-61
2023/05/08 00:41:38;;;;;;;6.75;2.08;;;16.70;72.30;;;;;;4964221;28;20061;-61
2023/05/08 00:44:04;;;;;;;4.22;2.47;;;16.70;72.20;;;;;;5033786;28;20132;-62
2023/05/08 00:46:30;;;;;;;4.47;2.75;;;16.70;72.20;;;;;;5037652;28;20037;-61
2023/05/08 00:48:56;;;;;;;2.78;1.98;;;16.60;72.20;;;;;;5034916;28;20026;-60
2023/05/08 00:51:22;;;;;;;3.50;2.08;;;16.60;72.00;;;;;;5035489;28;20060;-62
2023/05/08 00:53:48;;;;;;;6.97;2.30;;;16.70;72.20;;;;;;5035095;28;20099;-64
2023/05/08 00:56:14;;;;;;;2.88;1.77;;;16.60;72.30;;;;;;5036071;28;20029;-61
2023/05/08 00:58:42;;;;;;;3.28;2.00;;;16.60;72.20;;;;;;5033370;28;20025;-62
2023/05/08 01:01:07;;;;;;;4.18;2.40;;;16.60;72.40;;;;;;5034698;28;20097;-61
2023/05/08 01:03:35;;;;;;;6.90;2.20;;;16.60;72.40;;;;;;5031398;28;20095;-62
2023/05/08 01:06:05;;;;;;;4.50;2.15;;;16.60;72.60;;;;;;5035318;28;20029;-62
2023/05/08 01:08:31;;;;;;;3.25;2.33;;;16.60;72.90;;;;;;5032479;28;20098;-62
2023/05/08 01:10:59;;;;;;;5.47;2.10;;;16.70;72.80;;;;;;5034339;28;20065;-62
2023/05/08 01:13:46;;;;;;;2.97;2.25;;;16.70;72.90;;;;;;5037891;28;20064;-63
2023/05/08 01:16:21;;;;;;;4.13;2.03;;;16.70;73.50;;;;;;5014098;28;20033;-62
2023/05/08 01:19:00;;;;;;;4.03;2.00;;;16.70;73.30;;;;;;5035118;28;20067;-63
2023/05/08 01:21:54;;;;;;;9.52;1.95;;;16.70;73.50;;;;;;5034954;28;20026;-61
2023/05/08 01:24:34;;;;;;;2.13;1.90;;;16.70;73.80;;;;;;5026824;28;20520;-62
2023/05/08 01:27:09;;;;;;;2.10;1.90;;;16.80;73.10;;;;;;5021803;28;20033;-63
2023/05/08 01:29:41;;;;;;;2.40;1.85;;;16.80;72.90;;;;;;5035262;28;20041;-61
2023/05/08 01:32:14;;;;;;;2.42;1.73;;;16.80;72.70;;;;;;5039381;28;20087;-63
2023/05/08 01:34:55;;;;;;;5.03;1.80;;;16.80;73.20;;;;;;5047035;28;20033;-62
2023/05/08 01:37:29;;;;;;;2.03;1.60;;;16.80;73.00;;;;;;5040811;28;20029;-62
2023/05/08 01:40:00;;;;;;;2.80;1.50;;;16.80;72.90;;;;;;5037530;28;20032;-63
2023/05/08 01:42:47;;;;;;;2.17;1.65;;;16.80;72.90;;;;;;4964428;28;20068;-62
2023/05/08 01:45:38;;;;;;;2.00;1.80;;;16.80;73.20;;;;;;5033174;28;20041;-62
2023/05/08 01:48:13;;;;;;;3.28;2.00;;;16.80;72.90;;;;;;5034852;28;20124;-62
2023/05/08 01:50:46;;;;;;;2.85;2.03;;;16.80;73.00;;;;;;5028990;28;20043;-62
2023/05/08 01:53:23;;;;;;;2.38;1.63;;;16.80;72.80;;;;;;5037431;28;20032;-61
2023/05/08 01:55:52;;;;;;;1.70;1.60;;;16.80;72.80;;;;;;5033306;28;20021;-62
2023/05/08 01:58:20;;;;;;;3.97;2.20;;;16.80;72.40;;;;;;5034765;28;20044;-61
2023/05/08 02:00:47;;;;;;;3.38;1.85;;;16.80;72.50;;;;;;5031653;28;20116;-61
2023/05/08 02:03:15;;;;;;;3.75;1.60;;;16.80;72.60;;;;;;5033420;28;20033;-62
2023/05/08 02:05:42;;;;;;;2.25;1.70;;;16.80;72.50;;;;;;5036199;28;20029;-61
2023/05/08 02:08:11;;;;;;;2.40;1.55;;;16.80;72.50;;;;;;5032136;28;20087;-62
2023/05/08 02:10:38;;;;;;;2.58;1.80;;;16.80;72.50;;;;;;5034654;28;20048;-61
2023/05/08 02:13:06;;;;;;;2.00;1.83;;;16.80;72.50;;;;;;5030793;28;20536;-62
2023/05/08 02:15:35;;;;;;;3.67;2.17;;;16.80;72.60;;;;;;5034719;28;20031;-61
2023/05/08 02:18:05;;;;;;;2.40;1.83;;;16.80;72.70;;;;;;5033285;28;20028;-62
2023/05/08 02:20:32;;;;;;;4.90;2.30;;;16.80;72.80;;;;;;5032832;28;20073;-62
2023/05/08 02:22:58;;;;;;;2.95;2.40;;;16.80;72.80;;;;;;5033978;28;20064;-62
2023/05/08 02:25:25;;;;;;;3.92;2.03;;;16.80;72.90;;;;;;5036040;28;20494;-61
2023/05/08 02:27:53;;;;;;;4.28;2.25;;;16.80;73.10;;;;;;5034386;28;20078;-61
2023/05/08 02:30:23;;;;;;;2.67;2.33;;;16.80;73.10;;;;;;5034701;28;20037;-62
2023/05/08 02:32:49;;;;;;;3.47;2.63;;;16.80;73.10;;;;;;5033590;28;20030;-62
2023/05/08 02:35:18;;;;;;;5.18;2.72;;;16.80;73.10;;;;;;5036122;28;20029;-63
2023/05/08 02:37:46;;;;;;;3.83;2.75;;;16.80;73.10;;;;;;5034307;28;20029;-62
2023/05/08 02:40:13;;;;;;;3.72;2.40;;;16.70;73.10;;;;;;5030287;28;20117;-62
2023/05/08 02:42:39;;;;;;;4.07;2.47;;;16.80;73.10;;;;;;5031368;28;20121;-61
2023/05/08 02:45:06;;;;;;;5.13;2.13;;;16.80;73.00;;;;;;5033838;28;20390;-62
2023/05/08 02:47:45;;;;;;;2.15;1.95;;;16.80;73.10;;;;;;5029229;28;20052;-62
2023/05/08 02:50:28;;;;;;;2.92;2.20;;;16.80;73.80;;;;;;5027217;28;20033;-61
2023/05/08 02:53:02;;;;;;;2.30;1.98;;;16.80;73.80;;;;;;5031501;28;20729;-62
2023/05/08 02:55:40;;;;;;;3.70;2.03;;;16.80;73.50;;;;;;5035655;28;20074;-61
2023/05/08 02:58:28;;;;;;;4.30;2.25;;;16.80;73.60;;;;;;5033058;28;20021;-62
2023/05/08 03:01:00;;;;;;;4.40;2.15;;;16.80;74.10;;;;;;5029749;28;20371;-61
2023/05/08 03:03:37;;;;;;;2.58;2.30;;;16.80;73.30;;;;;;5034939;28;20132;-61
2023/05/08 03:06:12;;;;;;;3.75;2.53;;;16.80;73.60;;;;;;5034085;28;20055;-63
2023/05/08 03:08:40;;;;;;;2.65;2.45;;;16.80;73.60;;;;;;5035215;28;20030;-61
2023/05/08 03:11:11;;;;;;;2.67;2.28;;;16.80;73.40;;;;;;5030261;28;20088;-63
2023/05/08 03:13:39;;;;;;;2.72;2.15;;;16.80;73.50;;;;;;5036011;28;20052;-62
2023/05/08 03:16:10;;;;;;;3.03;2.50;;;16.80;73.40;;;;;;5031928;28;20029;-62
2023/05/08 03:18:46;;;;;;;4.45;2.55;;;16.80;73.60;;;;;;5035646;28;20025;-61
2023/05/08 03:21:14;;;;;;;4.75;2.40;;;16.80;73.90;;;;;;5029489;28;20037;-61
2023/05/08 03:23:41;;;;;;;4.57;2.60;;;16.80;73.50;;;;;;5016942;28;20025;-61
2023/05/08 03:26:08;;;;;;;2.97;2.40;;;16.80;73.60;;;;;;5036201;28;20491;-63
2023/05/08 03:28:35;;;;;;;4.35;2.78;;;16.90;73.70;;;;;;5035715;28;20372;-63
2023/05/08 03:31:03;;;;;;;8.10;2.60;;;16.90;73.70;;;;;;5030667;28;20064;-62
2023/05/08 03:33:31;;;;;;;6.28;3.70;;;16.90;73.60;;;;;;5035458;28;20223;-61
2023/05/08 03:35:58;;;;;;;6.05;3.83;;;17.00;73.50;;;;;;5038559;28;20029;-63
2023/05/08 03:38:24;;;;;;;6.55;3.55;;;16.90;73.40;;;;;;5038464;28;20029;-62
2023/05/08 03:40:50;;;;;;;5.82;3.80;;;16.90;73.40;;;;;;4985113;28;20035;-60
2023/05/08 03:43:17;;;;;;;5.20;4.07;;;16.90;73.40;;;;;;5035474;28;20028;-61
2023/05/08 03:45:44;;;;;;;3.97;3.55;;;16.90;73.40;;;;;;5036484;28;20022;-62
2023/05/08 03:48:12;;;;;;;6.22;3.92;;;16.90;73.40;;;;;;5033014;28;20037;-62
2023/05/08 03:50:38;;;;;;;5.00;3.92;;;16.90;73.50;;;;;;5037044;28;20038;-63
2023/05/08 03:53:04;;;;;;;6.55;4.30;;;16.90;73.50;;;;;;5037528;28;20032;-63
2023/05/08 03:55:30;;;;;;;6.35;4.65;;;16.90;73.50;;;;;;5035515;28;20460;-61
2023/05/08 03:58:20;;;;;;;7.22;4.90;;;16.90;73.40;;;;;;5039354;28;20101;-61
2023/05/08 04:01:02;;;;;;;8.43;5.10;;;16.90;73.90;;;;;;5034149;28;20013;-62
2023/05/08 04:03:31;;;;;;;8.20;5.68;;;17.00;73.80;;;;;;5044495;28;20028;-61
2023/05/08 04:06:09;;;;;;;8.30;5.50;;;16.90;73.20;;;;;;5036316;28;21033;-62
2023/05/08 04:08:50;;;;;;;7.97;4.93;;;16.90;73.40;;;;;;5036294;28;20025;-62
2023/05/08 04:11:25;;;;;;;11.23;6.82;;;16.80;73.40;;;;;;5032832;28;20041;-62
2023/05/08 04:14:00;;;;;;;7.85;6.60;;;16.90;72.70;;;;;;5037414;28;20045;-61
2023/05/08 04:16:28;;;;;;;7.15;6.20;;;16.80;72.30;;;;;;5035224;28;20030;-62
2023/05/08 04:19:00;;;;;;;8.65;6.93;;;16.80;72.30;;;;;;5035836;28;20029;-62
2023/05/08 04:21:30;;;;;;;10.32;6.75;;;16.80;72.30;;;;;;5037603;28;20017;-62
2023/05/08 04:23:57;;;;;;;11.20;7.28;;;16.80;72.10;;;;;;5036355;28;20100;-62
2023/05/08 04:26:23;;;;;;;8.07;6.35;;;16.80;72.10;;;;;;5035018;28;20036;-61
2023/05/08 04:28:50;;;;;;;10.85;6.57;;;16.70;71.90;;;;;;5035019;28;20729;-62
2023/05/08 04:31:17;;;;;;;9.18;7.10;;;16.70;72.00;;;;;;5018412;28;20037;-62
2023/05/08 04:33:44;;;;;;;12.63;7.35;;;16.70;71.80;;;;;;5035323;28;20081;-61
2023/05/08 04:36:13;;;;;;;11.30;6.50;;;16.70;71.70;;;;;;5034912;28;20049;-62
2023/05/08 04:38:39;;;;;;;10.98;6.82;;;16.60;71.70;;;;;;5036693;28;20029;-62
2023/05/08 04:41:06;;;;;;;10.50;6.85;;;16.60;71.90;;;;;;4957614;28;20020;-62
2023/05/08 04:43:32;;;;;;;12.73;8.38;;;16.60;72.00;;;;;;5015081;28;20144;-65
2023/05/08 04:45:58;;;;;;;13.35;7.53;;;16.60;71.60;;;;;;5034916;28;20021;-64
2023/05/08 04:48:23;;;;;;;10.48;6.95;;;16.50;71.40;;;;;;5028692;28;20089;-63
2023/05/08 04:50:49;;;;;;;10.23;6.95;;;16.50;71.60;;;;;;5035308;28;20040;-64
2023/05/08 04:53:15;;;;;;;9.40;7.18;;;16.50;71.80;;;;;;5016809;28;20034;-64
2023/05/08 04:55:40;;;;;;;9.70;7.22;;;16.50;71.80;;;;;;5036623;28;20055;-64
2023/05/08 04:58:06;;;;;;;12.25;7.47;;;16.40;71.70;;;;;;5041243;28;20038;-65
2023/05/08 05:00:33;;;;;;;8.65;7.03;;;16.40;71.90;;;;;;5042516;28;20068;-65
2023/05/08 05:02:59;;;;;;;9.70;7.03;;;16.40;72.00;;;;;;5037544;28;20052;-65
2023/05/08 05:05:24;;;;;;;10.32;7.13;;;16.40;72.10;;;;;;5034666;28;20025;-66
2023/05/08 05:07:50;;;;;;;10.20;6.80;;;16.40;72.30;;;;;;5036129;28;20029;-63
2023/05/08 05:10:16;;;;;;;9.80;6.85;;;16.40;72.30;;;;;;5033446;28;20036;-64
2023/05/08 05:12:41;;;;;;;10.32;6.72;;;16.40;72.00;;;;;;5037381;28;20048;-63
2023/05/08 05:15:08;;;;;;;8.63;6.75;;;16.40;71.70;;;;;;5015803;28;20445;-64
2023/05/08 05:17:34;;;;;;;10.35;6.50;;;16.40;71.60;;;;;;5036316;28;20057;-63
2023/05/08 05:19:59;;;;;;;9.25;6.68;;;16.40;71.60;;;;;;5035396;28;20033;-65
2023/05/08 05:22:26;;;;;;;8.73;6.38;;;16.40;71.50;;;;;;5027945;28;20116;-65
2023/05/08 05:24:52;;;;;;;8.50;6.72;;;16.40;71.30;;;;;;5034405;28;20051;-64
2023/05/08 05:27:18;;;;;;;8.88;6.43;;;16.40;71.80;;;;;;5037278;28;20095;-64
2023/05/08 05:29:43;;;;;;;6.85;5.70;;;16.40;70.80;;;;;;5033045;28;20026;-64
2023/05/08 05:32:10;;;;;;;7.43;6.35;;;16.40;70.60;;;;;;5035017;28;20094;-63
2023/05/08 05:34:36;;;;;;;8.65;6.43;;;16.40;70.70;;;;;;5033806;28;20029;-63
2023/05/08 05:37:01;;;;;;;16.63;6.38;;;16.40;70.80;;;;;;5034232;28;20034;-64
2023/05/08 05:39:27;;;;;;;9.07;6.70;;;16.40;71.00;;;;;;5034305;28;20027;-63
2023/05/08 05:41:53;;;;;;;8.98;6.07;;;16.40;71.10;;;;;;4939372;28;20028;-64
2023/05/08 05:44:18;;;;;;;12.13;6.57;;;16.40;71.10;;;;;;5032872;28;20072;-63
2023/05/08 05:46:44;;;;;;;6.55;5.75;;;16.40;71.10;;;;;;5030715;28;20109;-63
2023/05/08 05:49:11;;;;;;;10.52;6.35;;;16.50;71.30;;;;;;5013806;28;20041;-65
2023/05/08 05:51:36;;;;;;;8.18;6.50;;;16.50;71.50;;;;;;5032700;28;20044;-64
2023/05/08 05:54:02;;;;;;;8.00;6.18;;;16.60;71.70;;;;;;5030249;28;20021;-63
2023/05/08 05:56:28;;;;;;;7.43;6.07;;;16.60;71.80;;;;;;5035788;28;20447;-64
2023/05/08 05:58:53;;;;;;;8.23;5.80;;;16.70;71.70;;;;;;5034618;28;20026;-64
2023/05/08 06:01:19;;;;;;;9.18;6.50;;;16.80;71.70;;;;;;5032316;28;20032;-64
2023/05/08 06:03:46;;;;;;;9.00;6.65;;;16.80;71.70;;;;;;5036685;28;20049;-66
2023/05/08 06:06:12;;;;;;;7.03;6.32;;;16.90;71.50;;;;;;5032798;28;20055;-67
2023/05/08 06:08:37;;;;;;;8.80;6.18;;;16.90;71.20;;;;;;5036679;28;20509;-67
2023/05/08 06:11:03;;;;;;;9.25;6.32;;;17.00;70.80;;;;;;5013831;28;20095;-66
2023/05/08 06:13:29;;;;;;;8.15;5.57;;;17.00;70.30;;;;;;5034339;28;20101;-67
2023/05/08 06:15:55;;;;;;;8.63;6.20;;;17.00;70.30;;;;;;5018958;28;20033;-66
2023/05/08 06:18:21;;;;;;;7.40;5.88;;;17.10;69.90;;;;;;5036920;28;20032;-67
2023/05/08 06:20:47;;;;;;;8.75;6.18;;;17.00;69.60;;;;;;5033919;28;20029;-66
2023/05/08 06:23:13;;;;;;;9.80;5.70;;;17.10;69.70;;;;;;5034905;28;20035;-67
2023/05/08 06:25:39;;;;;;;7.18;6.20;;;17.00;69.50;;;;;;5018595;28;20040;-66
2023/05/08 06:28:06;;;;;;;8.02;6.13;;;17.00;69.30;;;;;;5033511;28;20397;-67
2023/05/08 06:30:33;;;;;;;7.45;6.03;;;17.00;69.10;;;;;;5032452;28;20095;-67
2023/05/08 06:32:59;;;;;;;8.30;5.35;;;17.00;69.30;;;;;;5036224;28;20021;-68
2023/05/08 06:35:25;;;;;;;10.30;5.85;;;17.00;69.40;;;;;;5037681;28;20021;-67
2023/05/08 06:37:50;;;;;;;7.78;5.90;;;17.00;69.10;;;;;;5034187;28;20048;-66
2023/05/08 06:40:16;;;;;;;8.93;5.78;;;17.00;69.10;;;;;;5015723;28;20033;-66
2023/05/08 06:42:42;;;;;;;10.40;5.82;;;17.00;68.90;;;;;;4930428;28;20548;-67
2023/05/08 06:45:08;;;;;;;8.10;6.15;;;17.00;69.00;;;;;;5032372;28;20029;-67
2023/05/08 06:47:34;;;;;;;8.77;6.30;;;17.00;69.30;;;;;;5032103;28;20032;-68
2023/05/08 06:50:00;;;;;;;7.60;6.05;;;17.00;69.40;;;;;;5029783;28;20037;-65
2023/05/08 06:52:25;;;;;;;10.45;6.57;;;17.00;69.20;;;;;;5035674;28;20105;-66
2023/05/08 06:54:51;;;;;;;8.65;6.43;;;17.00;69.10;;;;;;5030276;28;20037;-66
2023/05/08 06:57:17;;;;;;;8.68;6.43;;;17.00;69.10;;;;;;5016656;28;20044;-66
2023/05/08 06:59:42;;;;;;;7.65;6.35;;;17.00;69.20;;;;;;5044707;28;20044;-67
2023/05/08 07:02:11;;;;;;;9.07;6.45;;;17.00;69.40;;;;;;5035171;28;20276;-66
2023/05/08 07:04:36;;;;;;;9.02;6.03;;;17.00;69.50;;;;;;5034286;28;20029;-66
2023/05/08 07:07:02;;;;;;;9.43;6.43;;;17.10;69.60;;;;;;5033052;28;20048;-68
2023/05/08 07:09:28;;;;;;;9.60;6.28;;;17.10;69.70;;;;;;5037574;28;20083;-67
2023/05/08 07:11:53;;;;;;;6.78;5.95;;;17.20;69.70;;;;;;5032928;28;20112;-66
2023/05/08 07:14:19;;;;;;;8.57;6.22;;;17.20;69.60;;;;;;5017850;28;20104;-68
2023/05/08 07:16:45;;;;;;;8.10;5.90;;;17.30;69.50;;;;;;5039203;28;20036;-66
2023/05/08 07:19:10;;;;;;;8.30;6.38;;;17.30;69.50;;;;;;5039016;28;20029;-66
2023/05/08 07:21:37;;;;;;;8.13;6.35;;;17.40;69.30;;;;;;5038966;28;20033;-65
2023/05/08 07:24:03;;;;;;;10.27;6.75;;;17.40;69.00;;;;;;5046460;28;20022;-66
2023/05/08 07:26:29;;;;;;;7.45;5.90;;;17.40;69.00;;;;;;5038463;28;20123;-66
2023/05/08 07:28:54;;;;;;;8.18;6.38;;;17.50;69.00;;;;;;5037705;28;20029;-66
2023/05/08 07:31:20;;;;;;;8.32;6.43;;;17.50;69.10;;;;;;5034941;28;20052;-66
2023/05/08 07:33:46;;;;;;;9.18;6.85;;;17.50;69.10;;;;;;5039536;28;20555;-66
2023/05/08 07:36:12;;;;;;;11.30;7.47;;;17.60;69.20;;;;;;5038755;28;20036;-67
2023/05/08 07:38:38;;;;;;;8.70;6.85;;;17.60;68.90;;;;;;5037221;28;20085;-65
2023/05/08 07:41:04;;;;;;;8.35;7.30;;;17.60;68.70;;;;;;4951016;28;20695;-67
2023/05/08 07:43:30;;;;;;;8.15;6.70;;;17.60;68.60;;;;;;5035073;28;20030;-65
2023/05/08 07:45:57;;;;;;;8.85;7.20;;;17.60;68.80;;;;;;5036675;28;20036;-66
2023/05/08 07:48:22;;;;;;;10.15;6.63;;;17.60;68.70;;;;;;5034319;28;20029;-65
2023/05/08 07:50:49;;;;;;;8.25;7.25;;;17.60;68.30;;;;;;5044334;28;20030;-65
2023/05/08 07:53:15;;;;;;;7.57;6.70;;;17.60;68.10;;;;;;5043749;28;20053;-65
2023/05/08 07:55:41;;;;;;;8.60;6.63;;;17.60;68.00;;;;;;5038479;28;20060;-65
2023/05/08 07:58:06;;;;;;;8.85;6.95;;;17.50;68.10;;;;;;5038068;28;20035;-65
2023/05/08 08:00:32;;;;;;;11.02;7.30;;;17.50;68.40;;;;;;5037148;28;20354;-65
2023/05/08 08:02:58;;;;;;;9.02;6.78;;;17.50;68.40;;;;;;5035896;28;20060;-65
2023/05/08 08:05:23;;;;;;;8.57;6.70;;;17.40;68.50;;;;;;5034324;28;20025;-65
2023/05/08 08:07:49;;;;;;;8.80;6.60;;;17.40;68.40;;;;;;5037299;28;20037;-66
2023/05/08 08:10:15;;;;;;;8.88;7.22;;;17.40;68.40;;;;;;5037796;28;20118;-67
2023/05/08 08:12:40;;;;;;;7.75;6.82;;;17.30;68.10;;;;;;5036452;28;20057;-65
2023/05/08 08:15:07;;;;;;;8.77;6.78;;;17.30;68.10;;;;;;5036243;28;20081;-66
2023/05/08 08:17:32;;;;;;;8.68;7.15;;;17.20;68.00;;;;;;5036705;28;20036;-66
2023/05/08 08:19:58;;;;;;;8.48;7.32;;;17.10;68.10;;;;;;5036324;28;20026;-64
2023/05/08 08:22:24;;;;;;;9.82;7.80;;;17.10;68.20;;;;;;5038393;28;20091;-66
2023/05/08 08:24:50;;;;;;;11.05;8.32;;;17.00;68.40;;;;;;5036416;28;20033;-66
2023/05/08 08:27:16;;;;;;;10.18;8.35;;;16.90;68.40;;;;;;5015673;28;20085;-66
2023/05/08 08:29:41;;;;;;;10.90;8.23;;;16.90;68.60;;;;;;5035697;28;20029;-66
2023/05/08 08:32:07;;;;;;;12.32;7.82;;;16.80;68.90;;;;;;5038036;28;20069;-66
2023/05/08 08:34:33;;;;;;;10.68;7.43;;;16.80;69.20;;;;;;5036236;28;20026;-66
2023/05/08 08:36:59;;;;;;;10.52;7.32;;;16.80;69.50;;;;;;5036998;28;20403;-65
2023/05/08 08:39:24;;;;;;;11.10;7.43;;;16.80;69.60;;;;;;5036403;28;20025;-66
2023/05/08 08:41:50;;;;;;;11.30;7.72;;;16.80;69.50;;;;;;5036441;28;20033;-65
2023/05/08 08:44:16;;;;;;;9.73;7.75;;;16.90;69.80;;;;;;5035191;28;20037;-65
2023/05/08 08:46:50;;;;;;;9.40;7.13;;;16.90;70.10;;;;;;5037763;28;20029;-67
2023/05/08 08:49:20;;;;;;;10.27;7.60;;;17.00;70.30;;;;;;5029944;28;20479;-66
2023/05/08 08:51:51;;;;;;;9.07;7.45;;;17.00;70.10;;;;;;5037249;28;20090;-66
2023/05/08 08:54:20;;;;;;;9.88;8.05;;;17.00;70.00;;;;;;5031127;28;20064;-66
2023/05/08 08:56:48;;;;;;;10.45;7.90;;;17.00;69.70;;;;;;5036855;28;20017;-65
2023/05/08 08:59:17;;;;;;;9.73;6.78;;;17.10;69.80;;;;;;5034248;28;20410;-66
2023/05/08 09:01:46;;;;;;;10.77;7.78;;;17.10;69.70;;;;;;5036421;28;20045;-67
2023/05/08 09:04:12;;;;;;;10.65;8.13;;;17.10;69.60;;;;;;5034163;28;20063;-65
2023/05/08 09:06:40;;;;;;;12.88;7.82;;;17.20;69.20;;;;;;5036312;28;20033;-66
2023/05/08 09:09:06;;;;;;;7.50;6.78;;;17.20;69.40;;;;;;5034995;28;20168;-67
2023/05/08 09:11:32;;;;;;;9.50;7.03;;;17.30;69.60;;;;;;5035565;28;20033;-65
2023/05/08 09:13:58;;;;;;;11.05;7.68;;;17.30;69.60;;;;;;5034993;28;20065;-66
2023/05/08 09:16:26;;;;;;;11.90;8.27;;;17.30;69.80;;;;;;5034488;28;20026;-66
2023/05/08 09:18:52;;;;;;;10.13;8.18;;;17.40;69.70;;;;;;5035375;28;20056;-65
2023/05/08 09:21:19;;;;;;;13.95;8.43;;;17.40;69.60;;;;;;5034683;28;20371;-64
2023/05/08 09:24:03;;;;;;;10.18;8.18;;;17.50;69.70;;;;;;5034795;28;20071;-65
2023/05/08 09:26:33;;;;;;;10.75;8.10;;;17.50;69.90;;;;;;5018755;28;20025;-64
2023/05/08 09:29:11;;;;;;;9.85;8.13;;;17.50;69.60;;;;;;5033367;28;20101;-66
2023/05/08 09:31:39;;;;;;;9.80;8.02;;;17.60;69.60;;;;;;5033503;28;20095;-65
2023/05/08 09:34:22;;;;;;;10.48;7.93;;;17.50;69.50;;;;;;5035347;28;20026;-67
2023/05/08 09:36:48;;;;;;;11.18;8.02;;;17.60;69.60;;;;;;5034257;28;20022;-67
2023/05/08 09:39:24;;;;;;;9.77;7.72;;;17.70;69.40;;;;;;5033003;28;20037;-66
2023/05/08 09:42:00;;;;;;;9.02;7.88;;;17.70;69.10;;;;;;5030643;28;20033;-65
2023/05/08 09:44:26;;;;;;;10.32;7.97;;;17.80;69.30;;;;;;5036774;28;20541;-67
2023/05/08 09:47:12;;;;;;;9.85;8.10;;;17.80;68.90;;;;;;5034236;28;20089;-66
2023/05/08 09:49:41;;;;;;;11.57;7.57;;;17.90;68.90;;;;;;5031933;28;20030;-65
2023/05/08 09:52:07;;;;;;;9.05;7.55;;;18.00;68.70;;;;;;5019481;28;20037;-65
2023/05/08 09:54:33;;;;;;;8.55;7.63;;;18.00;68.60;;;;;;5044922;28;20014;-66
2023/05/08 09:56:58;;;;;;;12.15;9.02;;;18.10;68.50;;;;;;5036590;28;20052;-66
2023/05/08 09:59:28;;;;;;;9.88;7.75;;;18.10;68.20;;;;;;5035308;28;20048;-65
2023/05/08 10:01:55;;;;;;;11.80;8.10;;;18.20;68.80;;;;;;5032952;28;20029;-65
2023/05/08 10:04:34;;;;;;;10.38;8.48;;;18.20;67.90;;;;;;5031622;28;20048;-66
2023/05/08 10:07:00;;;;;;;11.82;8.60;;;18.30;67.50;;;;;;5016998;28;20029;-66
2023/05/08 10:09:26;;;;;;;9.32;8.07;;;18.30;67.60;;;;;;5036364;28;20029;-66
2023/05/08 10:11:54;;;;;;;10.35;8.55;;;18.30;67.50;;;;;;5012905;28;20045;-65
2023/05/08 10:14:20;;;;;;;10.75;7.97;;;18.40;67.90;;;;;;5034425;28;20030;-66
2023/05/08 10:16:48;;;;;;;9.95;8.20;;;18.40;67.80;;;;;;5035325;28;20025;-65
2023/05/08 10:19:15;;;;;;;10.55;8.60;;;18.40;67.60;;;;;;5030295;28;20095;-64
2023/05/08 10:21:46;;;;;;;9.85;8.80;;;18.50;67.40;;;;;;5015895;28;20025;-65
2023/05/08 10:24:16;;;;;;;10.10;8.73;;;18.50;67.50;;;;;;5033902;28;20063;-66
2023/05/08 10:26:47;;;;;;;11.43;8.80;;;18.50;67.30;;;;;;5020396;28;20480;-65
2023/05/08 10:29:20;;;;;;;9.57;8.57;;;18.50;67.20;;;;;;5034633;28;20385;-66
2023/05/08 10:31:48;;;;;;;21.42;10.32;;;18.50;66.70;;;;;;5031728;28;20061;-65
2023/05/08 10:34:18;;;;;;;16.38;8.85;;;18.50;66.80;;;;;;5035883;28;20121;-67
2023/05/08 10:36:46;;;;;;;13.45;10.02;;;18.50;66.50;;;;;;5036329;28;20056;-64
2023/05/08 10:39:15;;;;;;;15.88;8.85;;;18.50;66.30;;;;;;5034373;28;20205;-67
2023/05/08 10:41:41;;;;;;;12.73;8.68;;;18.40;66.50;;;;;;4987781;28;20060;-65
2023/05/08 10:44:08;;;;;;;13.65;8.75;;;18.40;66.50;;;;;;5043335;28;20059;-66
2023/05/08 10:47:09;;;;;;;11.52;9.20;;;18.40;66.50;;;;;;5040333;28;20101;-64
2023/05/08 10:49:59;;;;;;;11.23;9.23;;;18.30;66.80;;;;;;5025721;28;20045;-66
2023/05/08 10:52:34;;;;;;;12.15;9.60;;;18.30;66.50;;;;;;5031779;28;20096;-66
2023/05/08 10:55:30;;;;;;;10.95;9.20;;;18.30;66.40;;;;;;5033610;28;20044;-64
2023/05/08 10:58:28;;;;;;;14.82;9.52;;;18.30;66.50;;;;;;5020432;28;20097;-66
2023/05/08 11:01:02;;;;;;;12.18;9.95;;;18.20;66.40;;;;;;5013567;28;20037;-64
2023/05/08 11:03:29;;;;;;;11.17;9.13;;;18.20;66.60;;;;;;5034423;28;20478;-65
2023/05/08 11:05:57;;;;;;;11.75;9.65;;;18.20;66.80;;;;;;5039068;28;20112;-64
2023/05/08 11:08:27;;;;;;;16.17;9.98;;;18.30;67.10;;;;;;5039884;28;20107;-66
2023/05/08 11:10:59;;;;;;;13.23;9.05;;;18.30;67.10;;;;;;5035798;28;20043;-67
2023/05/08 11:13:35;;;;;;;11.85;9.00;;;18.30;66.90;;;;;;5039576;28;20076;-66
2023/05/08 11:16:01;;;;;;;11.25;9.43;;;18.40;66.70;;;;;;5029643;28;20025;-64
2023/05/08 11:18:29;;;;;;;14.02;9.52;;;18.40;66.70;;;;;;5036979;28;20041;-64
2023/05/08 11:21:03;;;;;;;12.15;9.70;;;18.50;66.80;;;;;;5037304;28;20029;-64
2023/05/08 11:23:30;;;;;;;;;;;18.50;66.30;;;;;;5035299;28;20022;-64
2023/05/08 11:26:10;;;;;;;11.15;9.50;;;18.60;66.40;;;;;;5035372;28;20441;-65
2023/05/08 11:28:38;;;;;;;12.05;9.82;;;18.60;66.20;;;;;;5035553;28;20056;-65
2023/05/08 11:31:05;;;;;;;14.00;10.13;;;18.60;66.10;;;;;;5038018;28;20202;-64
2023/05/08 11:33:33;;;;;;;15.52;10.38;;;18.60;66.80;;;;;;5037092;28;20033;-66
2023/05/08 11:36:11;;;;;;;11.48;10.05;;;18.60;66.40;;;;;;5037849;28;20083;-66
2023/05/08 11:38:37;;;;;;;13.43;10.25;;;18.60;66.20;;;;;;5036723;28;20025;-65
2023/05/08 11:41:07;;;;;;;12.88;10.02;;;18.60;66.20;;;;;;4985174;28;20044;-66
2023/05/08 11:43:32;;;;;;;11.48;9.77;;;18.60;66.60;;;;;;5043650;28;20045;-66
2023/05/08 11:46:03;;;;;;;12.23;10.02;;;18.60;66.80;;;;;;5046374;28;20040;-65
2023/05/08 11:48:33;;;;;;;14.43;9.02;;;18.70;66.90;;;;;;5048671;28;20033;-65
2023/05/08 11:51:00;;;;;;;13.10;9.80;;;18.80;66.70;;;;;;5045377;28;20049;-65
2023/05/08 11:53:26;;;;;;;16.08;12.30;;;18.90;66.50;;;;;;5047709;28;20105;-65
2023/05/08 11:55:53;;;;;;;11.75;10.05;;;18.90;66.30;;;;;;5043354;28;20060;-65
2023/05/08 11:58:20;;;;;;;12.25;10.23;;;19.00;65.80;;;;;;5029952;28;20030;-65
2023/05/08 12:00:47;;;;;;;14.52;9.63;;;19.00;65.60;;;;;;5038117;28;21364;-64
2023/05/08 12:03:23;;;;;;;12.88;9.38;;;19.10;65.70;;;;;;5040673;28;20036;-65
2023/05/08 12:05:50;;;;;;;12.18;9.70;;;19.10;65.50;;;;;;5040046;28;20104;-64
2023/05/08 12:08:18;;;;;;;10.20;9.18;;;19.10;65.40;;;;;;5044794;28;20052;-66
2023/05/08 12:10:53;;;;;;;14.45;11.35;;;19.20;65.40;;;;;;5045165;28;20034;-64
2023/05/08 12:13:23;;;;;;;12.18;10.23;;;19.20;65.20;;;;;;5043961;28;20077;-64
2023/05/08 12:15:54;;;;;;;14.57;11.93;;;19.20;65.50;;;;;;5034128;28;20025;-65
2023/05/08 12:18:21;;;;;;;11.50;10.27;;;19.20;65.50;;;;;;5044651;28;20409;-64
2023/05/08 12:20:52;;;;;;;11.13;9.57;;;19.30;65.40;;;;;;5047033;28;20022;-64
2023/05/08 12:23:18;;;;;;;14.70;9.35;;;19.30;65.50;;;;;;5045139;28;20025;-65
2023/05/08 12:25:43;;;;;;;13.77;9.68;;;19.30;65.70;;;;;;5047276;28;20033;-64
2023/05/08 12:28:09;;;;;;;10.60;9.45;;;19.40;65.70;;;;;;5051240;28;20030;-65
2023/05/08 12:30:36;;;;;;;13.77;8.75;;;19.50;65.30;;;;;;5051413;28;20093;-65
2023/05/08 12:33:03;;;;;;;13.23;8.93;;;19.60;65.60;;;;;;5045856;28;20025;-65
2023/05/08 12:35:31;;;;;;;12.00;8.93;;;19.80;65.90;;;;;;5046365;28;20489;-64
2023/05/08 12:38:04;;;;;;;11.88;8.90;;;20.00;65.80;;;;;;5040665;28;20091;-67
2023/05/08 12:40:43;;;;;;;15.48;8.98;;;20.10;65.20;;;;;;5035753;28;20060;-65
2023/05/08 12:43:10;;;;;;;9.93;8.63;;;20.30;64.20;;;;;;5040382;28;20029;-65
2023/05/08 12:45:38;;;;;;;9.38;8.38;;;20.40;64.60;;;;;;5042581;28;20440;-64
2023/05/08 12:48:06;;;;;;;16.02;9.20;;;20.50;64.50;;;;;;5034471;28;20028;-65
2023/05/08 12:50:40;;;;;;;10.38;8.68;;;20.60;64.50;;;;;;5040608;28;20026;-65